Home > Products > Valid Products > TAF

000
FTUS45 KRIW 260500
TAFRKS
TAF
KRKS 260521Z 2606/2706 22011KT P6SM SCT080 BKN200
     FM261900 27016G26KT P6SM SCT080 BKN150
     FM262200 28023G33KT P6SM BKN080
     FM270500 29015KT 4SM -SHSN SCT025 OVC040=



000
FTUS45 KRIW 260500
TAFBPI
TAF
KBPI 260521Z 2606/2706 VRB05KT P6SM SCT100 BKN200
     FM260800 VRB05KT P6SM VCSH BKN090
     FM261800 26016G26KT P6SM VCSH SCT050 BKN090
     FM270000 30012KT 5SM -SHRASN SCT030 OVC045
     FM270500 32009KT P6SM VCSH BKN045=



000
FTUS45 KRIW 260500
TAFWRL
TAF
KWRL 260521Z 2606/2706 16009KT P6SM BKN200
     FM262000 27011KT P6SM SCT080 BKN200
     FM270000 31008KT P6SM VCSH SCT050 OVC080=



000
FTUS45 KRIW 260500
TAFJAC
TAF
KJAC 260521Z 2606/2706 20010KT P6SM VCTS SCT050CB BKN080
      TEMPO 2606/2609 6SM -SHRA BKN040
     FM261000 21011KT P6SM VCSH SCT022 BKN050
     FM262100 21017G27KT 5SM -SHRA SCT030 BKN050
     FM270400 19009KT 4SM -SHSN OVC022
      AMD LTD TO CLD VIS AND WIND=



000
FTUS45 KRIW 260500
TAFRIW
TAF
KRIW 260521Z 2606/2706 20010KT P6SM BKN200 WS020/25035KT
     FM261100 VRB06KT P6SM BKN200
     FM261900 26013G23KT P6SM FEW140 BKN200
     FM270000 29015G25KT P6SM SCT080=



000
FTUS45 KRIW 260500
TAFCOD
TAF
KCOD 260521Z 2606/2706 23011KT P6SM SCT090 BKN200 WS020/25045KT
     FM261200 24011G21KT P6SM SCT090 BKN200 WS020/25050KT
     FM261700 25015G25KT P6SM SCT090 BKN200
     FM270000 27011KT P6SM SCT080 BKN110
      AMD LTD TO CLD VIS AND WIND=



000
FTUS45 KRIW 260500
TAFCPR
TAF
KCPR 260521Z 2606/2706 21018G28KT P6SM BKN200
     FM261200 22025G35KT P6SM SCT200
     FM261800 25020G30KT P6SM SCT080 SCT150
     FM270200 25011KT P6SM VCSH SCT050 BKN080=



000
FTUS45 KRIW 260500
TAFLND
TAF
KLND 260521Z 2606/2706 24014G22KT P6SM FEW140 BKN200 WS020/25040KT
     FM261700 26015G25KT P6SM FEW140 BKN200
     FM270100 29010KT P6SM SCT080=



000
FTUS45 KRIW 252300
TAFRKS
TAF
KRKS 252320Z 2600/2624 18016G26KT P6SM BKN200
     FM260400 23011KT P6SM SCT060 BKN200
     FM261900 27016G26KT P6SM SCT060 BKN150
     FM262200 27023G33KT P6SM BKN100=



000
FTUS45 KRIW 252300
TAFWRL
TAF
KWRL 252320Z 2600/2624 18013KT P6SM SCT200
     FM260200 16009KT P6SM BKN200
     FM262100 31009KT P6SM SCT100 BKN200=



000
FTUS45 KRIW 252300
TAFLND
TAF
KLND 252320Z 2600/2624 25010G18KT P6SM BKN200
     FM260400 25014G22KT P6SM SCT250 WS020/25040KT
     FM261700 25010G20KT P6SM BKN200=



000
FTUS45 KRIW 252300
TAFRIW
TAF
KRIW 252320Z 2600/2624 20008KT P6SM BKN200
     FM261600 26013G23KT P6SM BKN250=



000
FTUS45 KRIW 252300
TAFBPI
TAF
KBPI 252320Z 2600/2624 21012G18KT P6SM BKN200
     FM260300 VRB05KT P6SM SCT100 BKN200
     FM260900 VRB05KT P6SM VCSH BKN100
     FM261800 26016G26KT P6SM VCSH SCT050 BKN100=



000
FTUS45 KRIW 252300
TAFCPR
TAF
KCPR 252320Z 2600/2624 22012G18KT P6SM SCT200
     FM260500 22018G26KT P6SM BKN200
     FM261200 22030G40KT P6SM SKC
     FM261800 24024G34KT P6SM SCT080 SCT150=



000
FTUS45 KRIW 252300
TAFJAC
TAF
KJAC 252320Z 2600/2624 20012G18KT P6SM BKN200
     FM260200 21010KT P6SM VCSH SCT060 BKN100
     FM261500 21012KT P6SM VCSH BKN060
     FM262100 21017G27KT 5SM -SHRA BKN050
      AMD LTD TO CLD VIS AND WIND=



000
FTUS45 KRIW 252300
TAFCOD
TAF
KCOD 252320Z 2600/2624 14010KT P6SM BKN200
     FM260200 20007KT P6SM FEW120 SCT250
     FM260400 23011KT P6SM FEW120 SCT250 WS020/25045KT
     FM261200 24011G21KT P6SM SCT100 BKN250 WS020/25050KT
     FM261700 25015G25KT P6SM SCT100 BKN250
      AMD LTD TO CLD VIS AND WIND=



000
FTUS45 KRIW 252100 AAA
TAFWRL
TAF AMD
KWRL 252157Z 2522/2618 20012KT P6SM SKC
     FM260200 15009KT P6SM SKC=



000
FTUS45 KRIW 252100 AAA
TAFRKS
TAF AMD
KRKS 252156Z 2522/2618 22021G31KT P6SM SKC
     FM260000 21010KT P6SM SKC
     FM260600 23011KT P6SM SCT060=



000
FTUS45 KRIW 252100 AAA
TAFLND
TAF AMD
KLND 252155Z 2522/2618 VRB05KT P6SM SKC
     FM260000 25010G18KT P6SM SKC
     FM260400 25014G20KT P6SM SCT250 WS020/25040KT
     FM261700 25010G20KT P6SM BKN200=



000
FTUS45 KRIW 252100 AAB
TAFCOD
TAF AMD
KCOD 252154Z 2522/2618 12012KT P6SM SKC
     FM260100 20007KT P6SM FEW120 SCT250
     FM260400 23011KT P6SM FEW120 SCT250 WS020/25045KT
     FM261200 24011G21KT P6SM SCT100 BKN250 WS020/25050KT
     FM261700 25015G25KT P6SM SCT100 BKN250
      AMD LTD TO CLD VIS AND WIND=



000
FTUS45 KRIW 252000 AAA
TAFJAC
TAF AMD
KJAC 252026Z 2520/2618 21008KT P6SM SCT100
     FM260400 21007KT P6SM VCSH SCT060 BKN100
     FM261500 21012KT P6SM VCSH BKN060
      AMD LTD TO CLD VIS AND WIND=



000
FTUS45 KRIW 252000 AAA
TAFBPI
TAF AMD
KBPI 252025Z 2520/2618 21010G20KT P6SM SKC
     FM260300 VRB05KT P6SM SCT100 BKN200
     FM260900 VRB05KT P6SM VCSH BKN100=



000
FTUS45 KRIW 252000 AAA
TAFCOD
TAF AMD
KCOD 252025Z 2520/2618 02008KT P6SM SKC
     FM260100 20007KT P6SM FEW120 SCT250
     FM260400 23011KT P6SM FEW120 SCT250 WS020/25045KT
     FM261200 24011G21KT P6SM SCT100 BKN250 WS020/25050KT
     FM261700 25015G25KT P6SM SCT100 BKN250
      AMD LTD TO CLD VIS AND WIND=



000
FTUS45 KRIW 251700
TAFRKS
TAF
KRKS 251735Z 2518/2618 VRB04KT P6SM SKC
     FM252000 22015G25KT P6SM SKC
     FM260000 21010KT P6SM SKC
     FM260600 23011KT P6SM SCT060=



000
FTUS45 KRIW 251700
TAFCPR
TAF
KCPR 251735Z 2518/2618 22012G22KT P6SM SKC
     FM260000 22014G20KT P6SM SKC
     FM261200 22030G40KT P6SM SKC=



000
FTUS45 KRIW 251700
TAFRIW
TAF
KRIW 251735Z 2518/2618 VRB05KT P6SM SKC
     FM252100 22008KT P6SM SKC
     FM260200 24007KT P6SM SCT250
     FM261600 26013G23KT P6SM BKN250=



000
FTUS45 KRIW 251700
TAFJAC
TAF
KJAC 251735Z 2518/2618 VRB05KT P6SM SKC
     FM251900 19012G22KT P6SM SKC
     FM260000 21008KT P6SM SCT100
     FM260400 21007KT P6SM VCSH SCT060 BKN100
     FM261500 21012KT P6SM VCSH BKN060
      AMD LTD TO CLD VIS AND WIND=



000
FTUS45 KRIW 251700
TAFWRL
TAF
KWRL 251735Z 2518/2618 VRB04KT P6SM SKC
     FM252100 15009KT P6SM SKC=



000
FTUS45 KRIW 251700
TAFCOD
TAF
KCOD 251735Z 2518/2618 VRB04KT P6SM SKC
     FM252000 24011G21KT P6SM SKC
     FM260000 20007KT P6SM FEW120 SCT250
     FM260400 23011KT P6SM FEW120 SCT250 WS020/25045KT
     FM261200 24011G21KT P6SM SCT100 BKN250 WS020/25050KT
     FM261700 25015G25KT P6SM SCT100 BKN250
      AMD LTD TO CLD VIS AND WIND=



000
FTUS45 KRIW 251700
TAFLND
TAF
KLND 251735Z 2518/2618 VRB05KT P6SM SKC
     FM252000 25010G18KT P6SM SKC
     FM260400 25014G20KT P6SM SCT250 WS020/25040KT
     FM261700 25010G20KT P6SM BKN200=



000
FTUS45 KRIW 251700
TAFWRL
TAF
KWRL 251735Z 2518/2618 VRB04KT P6SM SKC
     FM252100 15009KT P6SM SKC=



000
FTUS45 KRIW 251700
TAFRIW
TAF
KRIW 251735Z 2518/2618 VRB05KT P6SM SKC
     FM252100 22008KT P6SM SKC
     FM260200 24007KT P6SM SCT250
     FM261600 26013G23KT P6SM BKN250=



000
FTUS45 KRIW 251700
TAFCPR
TAF
KCPR 251735Z 2518/2618 22012G22KT P6SM SKC
     FM260000 22014G20KT P6SM SKC
     FM261200 22030G40KT P6SM SKC=



000
FTUS45 KRIW 251700
TAFJAC
TAF
KJAC 251735Z 2518/2618 VRB05KT P6SM SKC
     FM251900 19012G22KT P6SM SKC
     FM260000 21008KT P6SM SCT100
     FM260400 21007KT P6SM VCSH SCT060 BKN100
     FM261500 21012KT P6SM VCSH BKN060
      AMD LTD TO CLD VIS AND WIND=



000
FTUS45 KRIW 251700
TAFLND
TAF
KLND 251735Z 2518/2618 VRB05KT P6SM SKC
     FM252000 25010G18KT P6SM SKC
     FM260400 25014G20KT P6SM SCT250 WS020/25040KT
     FM261700 25010G20KT P6SM BKN200=



000
FTUS45 KRIW 251700
TAFCOD
TAF
KCOD 251735Z 2518/2618 VRB04KT P6SM SKC
     FM252000 24011G21KT P6SM SKC
     FM260000 20007KT P6SM FEW120 SCT250
     FM260400 23011KT P6SM FEW120 SCT250 WS020/25045KT
     FM261200 24011G21KT P6SM SCT100 BKN250 WS020/25050KT
     FM261700 25015G25KT P6SM SCT100 BKN250
      AMD LTD TO CLD VIS AND WIND=



000
FTUS45 KRIW 251700
TAFBPI
TAF
KBPI 251735Z 2518/2618 VRB05KT P6SM SKC
     FM251900 21007KT P6SM SKC
     FM260300 VRB05KT P6SM SCT100 BKN200
     FM260900 VRB05KT P6SM VCSH BKN100=



000
FTUS45 KRIW 251700
TAFRKS
TAF
KRKS 251735Z 2518/2618 VRB04KT P6SM SKC
     FM252000 22015G25KT P6SM SKC
     FM260000 21010KT P6SM SKC
     FM260600 23011KT P6SM SCT060=



000
FTUS45 KRIW 251700
TAFBPI
TAF
KBPI 251735Z 2518/2618 VRB05KT P6SM SKC
     FM251900 21007KT P6SM SKC
     FM260300 VRB05KT P6SM SCT100 BKN200
     FM260900 VRB05KT P6SM VCSH BKN100=



000
FTUS45 KRIW 251100
TAFRIW
TAF
KRIW 251126Z 2512/2612 VRB05KT P6SM SKC
     FM252100 22008KT P6SM SKC
     FM260200 24007KT P6SM SCT250=



000
FTUS45 KRIW 251100
TAFCOD
TAF
KCOD 251126Z 2512/2612 20008KT P6SM SKC
     FM251800 13007KT P6SM SKC
     FM260000 20007KT P6SM FEW120 SCT250
     FM260400 23011KT P6SM FEW120 SCT250 WS020/25045KT
      AMD LTD TO CLD VIS AND WIND=



000
FTUS45 KRIW 251100
TAFWRL
TAF
KWRL 251126Z 2512/2612 VRB05KT P6SM SKC
     FM251800 15009KT P6SM SKC=



000
FTUS45 KRIW 251100
TAFRKS
TAF
KRKS 251126Z 2512/2612 16007KT P6SM SKC
     FM251500 21008KT P6SM SKC
     FM251800 22015G25KT P6SM SKC
     FM260000 21010KT P6SM SKC
     FM260600 23011KT P6SM SCT060=



000
FTUS45 KRIW 251100
TAFBPI
TAF
KBPI 251126Z 2512/2612 VRB05KT P6SM SKC
     FM251900 21007KT P6SM SKC
     FM260300 VRB05KT P6SM SCT100 BKN200
     FM260900 VRB05KT P6SM VCSH BKN100=



000
FTUS45 KRIW 251100
TAFJAC
TAF
KJAC 251126Z 2512/2612 VRB05KT P6SM SKC
     FM251900 19012G22KT P6SM SKC
     FM260000 21008KT P6SM SCT100
     FM260400 23007KT P6SM VCSH SCT060 BKN100
      AMD LTD TO CLD VIS AND WIND=



000
FTUS45 KRIW 251100
TAFLND
TAF
KLND 251126Z 2512/2612 VRB05KT P6SM SKC
     FM252000 25010G18KT P6SM SKC
     FM260400 25014G20KT P6SM SCT250 WS020/25040KT=



000
FTUS45 KRIW 251100
TAFCPR
TAF
KCPR 251126Z 2512/2612 22010KT P6SM SKC
     FM251600 22018G30KT P6SM SKC
     FM260000 22014G20KT P6SM SKC=



000
FTUS45 KRIW 251100
TAFWRL
TAF
KWRL 251126Z 2512/2612 VRB05KT P6SM SKC
     FM251800 15009KT P6SM SKC=



000
FTUS45 KRIW 251100
TAFRIW
TAF
KRIW 251126Z 2512/2612 VRB05KT P6SM SKC
     FM252100 22008KT P6SM SKC
     FM260200 24007KT P6SM SCT250=



000
FTUS45 KRIW 251100
TAFCPR
TAF
KCPR 251126Z 2512/2612 22010KT P6SM SKC
     FM251600 22018G30KT P6SM SKC
     FM260000 22014G20KT P6SM SKC=



000
FTUS45 KRIW 251100
TAFCOD
TAF
KCOD 251126Z 2512/2612 20008KT P6SM SKC
     FM251800 13007KT P6SM SKC
     FM260000 20007KT P6SM FEW120 SCT250
     FM260400 23011KT P6SM FEW120 SCT250 WS020/25045KT
      AMD LTD TO CLD VIS AND WIND=



000
FTUS45 KRIW 251100
TAFLND
TAF
KLND 251126Z 2512/2612 VRB05KT P6SM SKC
     FM252000 25010G18KT P6SM SKC
     FM260400 25014G20KT P6SM SCT250 WS020/25040KT=



000
FTUS45 KRIW 251100
TAFJAC
TAF
KJAC 251126Z 2512/2612 VRB05KT P6SM SKC
     FM251900 19012G22KT P6SM SKC
     FM260000 21008KT P6SM SCT100
     FM260400 23007KT P6SM VCSH SCT060 BKN100
      AMD LTD TO CLD VIS AND WIND=



000
FTUS45 KRIW 251100
TAFRKS
TAF
KRKS 251126Z 2512/2612 16007KT P6SM SKC
     FM251500 21008KT P6SM SKC
     FM251800 22015G25KT P6SM SKC
     FM260000 21010KT P6SM SKC
     FM260600 23011KT P6SM SCT060=



000
FTUS45 KRIW 251100
TAFBPI
TAF
KBPI 251126Z 2512/2612 VRB05KT P6SM SKC
     FM251900 21007KT P6SM SKC
     FM260300 VRB05KT P6SM SCT100 BKN200
     FM260900 VRB05KT P6SM VCSH BKN100=



000
FTUS45 KRIW 250500
TAFBPI
TAF
KBPI 250520Z 2506/2606 VRB05KT P6SM SKC
     FM251900 21007KT P6SM SKC
     FM260300 VRB05KT P6SM SCT100 BKN200=



000
FTUS45 KRIW 250500
TAFJAC
TAF
KJAC 250520Z 2506/2606 VRB05KT P6SM SKC
     FM251900 19012G22KT P6SM SKC
     FM260000 21008KT P6SM SCT100
     FM260400 23007KT P6SM VCSH SCT060 BKN100
      AMD LTD TO CLD VIS AND WIND=



000
FTUS45 KRIW 250500
TAFCOD
TAF
KCOD 250520Z 2506/2606 20008KT P6SM SKC
     FM251800 13007KT P6SM SKC
     FM260000 20007KT P6SM FEW120 SCT250
     FM260400 23011KT P6SM FEW120 SCT250 WS020/25045KT
      AMD LTD TO CLD VIS AND WIND=



000
FTUS45 KRIW 250500
TAFCPR
TAF
KCPR 250520Z 2506/2606 22010KT P6SM SKC
     FM251600 22018G30KT P6SM SKC
     FM260000 22014G20KT P6SM SKC=



000
FTUS45 KRIW 250500
TAFLND
TAF
KLND 250520Z 2506/2606 VRB05KT P6SM SKC
     FM252000 25010G18KT P6SM SKC
     FM260400 25014G20KT P6SM SCT250 WS020/25040KT=



000
FTUS45 KRIW 250500
TAFRIW
TAF
KRIW 250520Z 2506/2606 30007KT P6SM SKC
     FM251300 VRB04KT P6SM SKC
     FM252100 22008KT P6SM SKC
     FM260200 24007KT P6SM SCT250=



000
FTUS45 KRIW 250500
TAFWRL
TAF
KWRL 250520Z 2506/2606 VRB05KT P6SM SKC
     FM251800 15009KT P6SM SKC=



000
FTUS45 KRIW 250500
TAFRKS
TAF
KRKS 250520Z 2506/2606 16007KT P6SM SKC
     FM251500 21008KT P6SM SKC
     FM251800 22015G25KT P6SM SKC
     FM260000 21010KT P6SM SKC=



000
FTUS45 KRIW 250100 AAA
TAFCOD
TAF AMD
KCOD 250142Z 2502/2524 VRB05KT P6SM SCT250
     FM250400 20010KT P6SM SKC
     FM251800 11007KT P6SM SCT090
      AMD LTD TO CLD VIS AND WIND=



000
FTUS45 KRIW 250100 AAA
TAFCPR
TAF AMD
KCPR 250141Z 2502/2524 22010KT P6SM SKC
     FM250900 22016G26KT P6SM SKC
     FM251700 22021G31KT P6SM SKC
     FM252100 22015G25KT P6SM SKC
     FM252300 22010G20KT P6SM SKC=



000
FTUS45 KRIW 242300
TAFCPR
TAF
KCPR 242325Z 2500/2524 24020KT P6SM SKC
     FM250300 23010KT P6SM SKC
     FM250900 22016G26KT P6SM SKC
     FM251700 22021G31KT P6SM SKC
     FM252100 22015G25KT P6SM SKC
     FM252300 22010G20KT P6SM SKC=



000
FTUS45 KRIW 242300
TAFLND
TAF
KLND 242325Z 2500/2524 28007KT P6SM SCT250
     FM250500 VRB05KT P6SM SKC
     FM252100 21008KT P6SM SKC=



000
FTUS45 KRIW 242300
TAFWRL
TAF
KWRL 242325Z 2500/2524 VRB05KT P6SM SKC
     FM251800 15009KT P6SM SCT080=



000
FTUS45 KRIW 242300
TAFJAC
TAF
KJAC 242325Z 2500/2524 21015KT P6SM SKC
     FM250100 23008KT P6SM SKC
     FM250300 VRB05KT P6SM SKC
     FM251800 17006KT P6SM SCT070
     FM252000 19012G22KT P6SM SCT070
      AMD LTD TO CLD VIS AND WIND=



000
FTUS45 KRIW 242300
TAFRIW
TAF
KRIW 242325Z 2500/2524 25010G15KT P6SM SKC
     FM250200 29008KT P6SM SKC
     FM251300 VRB04KT P6SM SKC
     FM251800 25007KT P6SM SKC=



000
FTUS45 KRIW 242300
TAFRKS
TAF
KRKS 242325Z 2500/2524 24010KT P6SM SKC
     FM250100 20007KT P6SM SKC
     FM251600 21008KT P6SM SCT080
     FM252000 22015G25KT P6SM SCT080=



000
FTUS45 KRIW 242300
TAFCOD
TAF
KCOD 242325Z 2500/2524 04012KT P6SM BKN110
     FM250200 25014G20KT P6SM SCT250
     FM250400 20010KT P6SM SKC
     FM251800 11007KT P6SM SCT090
      AMD LTD TO CLD VIS AND WIND=



000
FTUS45 KRIW 242300
TAFBPI
TAF
KBPI 242325Z 2500/2524 26014G20KT P6SM SKC
     FM250100 VRB05KT P6SM SKC
     FM251900 21007KT P6SM SCT080=



000
FTUS45 KRIW 242100 AAA
TAFJAC
TAF AMD
KJAC 242153Z 2422/2518 20016G26KT P6SM SCT250
     FM250000 23008KT P6SM SKC
     FM250300 VRB05KT P6SM SKC
      AMD LTD TO CLD VIS AND WIND=



000
FTUS45 KRIW 242100 AAB
TAFCOD
TAF AMD
KCOD 242110Z 2421/2518 04012KT P6SM SCT250
     FM250200 20010KT P6SM SKC
      AMD LTD TO CLD VIS AND WIND=



000
FTUS45 KRIW 242000 AAA
TAFCOD
TAF AMD
KCOD 242034Z 2421/2518 13006KT P6SM SCT250
     FM250200 20010KT P6SM SKC
      AMD LTD TO CLD VIS AND WIND=



000
FTUS45 KRIW 242000 AAA
TAFBPI
TAF AMD
KBPI 242033Z 2421/2518 28015G25KT P6SM SCT250
     FM242200 25009KT P6SM SKC
     FM250100 VRB05KT P6SM SKC=



000
FTUS45 KRIW 241700
TAFJAC
TAF
KJAC 241723Z 2418/2518 19007KT P6SM BKN090
     FM241900 20014G20KT P6SM SCT250
     FM250000 23008KT P6SM SKC
     FM250300 VRB05KT P6SM SKC
      AMD LTD TO CLD VIS AND WIND=



000
FTUS45 KRIW 241700
TAFRIW
TAF
KRIW 241723Z 2418/2518 00000KT P6SM FEW120 BKN250
     FM242000 25010G20KT P6SM SCT250
     FM250200 29008KT P6SM SKC=



000
FTUS45 KRIW 241700
TAFBPI
TAF
KBPI 241723Z 2418/2518 VRB03KT P6SM SCT250
     FM242000 25009KT P6SM SKC
     FM250100 VRB05KT P6SM SKC=



000
FTUS45 KRIW 241700
TAFRKS
TAF
KRKS 241723Z 2418/2518 VRB03KT P6SM SCT250
     FM241900 25012G22KT P6SM SKC
     FM250100 20007KT P6SM SKC
     FM251600 21008KT P6SM SCT080=



000
FTUS45 KRIW 241700
TAFWRL
TAF
KWRL 241723Z 2418/2518 VRB05KT P6SM SCT120 BKN250
     FM242100 15006KT P6SM SKC=



000
FTUS45 KRIW 241700
TAFCOD
TAF
KCOD 241723Z 2418/2518 25007KT P6SM BKN110
     FM242000 25014G20KT P6SM SCT250
     FM250200 20010KT P6SM SKC
      AMD LTD TO CLD VIS AND WIND=



000
FTUS45 KRIW 241700
TAFCPR
TAF
KCPR 241723Z 2418/2518 23020G30KT P6SM SCT120 BKN250
     FM250000 23010KT P6SM SKC
     FM250900 22016G26KT P6SM SKC=



000
FTUS45 KRIW 241700
TAFLND
TAF
KLND 241723Z 2418/2518 VRB05KT P6SM FEW120 BKN250
     FM241900 24010KT P6SM SCT250
     FM250500 VRB05KT P6SM SKC=



000
FTUS45 KRIW 241600 AAA
TAFCPR
TAF AMD
KCPR 241648Z 2417/2512 23020G30KT P6SM SCT120 BKN250
     FM250000 23010KT P6SM SKC=



000
FTUS45 KRIW 241100
TAFCPR
TAF
KCPR 241123Z 2412/2512 23014KT P6SM FEW120 BKN250
     FM241800 23020G30KT P6SM SCT120 BKN250
     FM250000 23010KT P6SM SKC=



000
FTUS45 KRIW 241100
TAFCOD
TAF
KCOD 241123Z 2412/2512 VRB06KT P6SM BKN100 WS020/26040KT
     FM241600 21007KT P6SM SCT120 BKN250
     FM242000 25014G20KT P6SM SCT250
     FM250200 20010KT P6SM SKC
      AMD LTD TO CLD VIS AND WIND=



000
FTUS45 KRIW 241100
TAFBPI
TAF
KBPI 241123Z 2412/2512 VRB05KT P6SM FEW100 BKN250
     FM241800 25009KT P6SM SKC
     FM250100 VRB05KT P6SM SKC=



000
FTUS45 KRIW 241100
TAFJAC
TAF
KJAC 241123Z 2412/2512 20008KT P6SM BKN090
     FM241900 20014G20KT P6SM SCT250
     FM250000 23008KT P6SM SKC
     FM250300 VRB05KT P6SM SKC
      AMD LTD TO CLD VIS AND WIND=



000
FTUS45 KRIW 241100
TAFWRL
TAF
KWRL 241123Z 2412/2512 VRB05KT P6SM SCT120 BKN250
     FM242100 15006KT P6SM SKC=



000
FTUS45 KRIW 241100
TAFLND
TAF
KLND 241123Z 2412/2512 VRB05KT P6SM FEW120 BKN250 WS020/25035KT
     FM241900 24010KT P6SM SCT250
     FM250500 VRB05KT P6SM SKC=



000
FTUS45 KRIW 241100
TAFRKS
TAF
KRKS 241123Z 2412/2512 21005KT P6SM SCT250
     FM241900 25012G22KT P6SM SKC
     FM250100 20007KT P6SM SKC=



000
FTUS45 KRIW 241100
TAFRIW
TAF
KRIW 241123Z 2412/2512 VRB05KT P6SM FEW120 BKN250
     FM242000 25010G20KT P6SM SCT250
     FM250200 29008KT P6SM SKC=



000
FTUS45 KRIW 240500
TAFCPR
TAF
KCPR 240521Z 2406/2506 23014KT P6SM FEW120 BKN250
     FM241800 23020G30KT P6SM SCT120 BKN250
     FM250000 23010KT P6SM SKC=



000
FTUS45 KRIW 240500
TAFWRL
TAF
KWRL 240521Z 2406/2506 15006KT P6SM SCT120 BKN250
     FM242100 15006KT P6SM SKC=



000
FTUS45 KRIW 240500
TAFJAC
TAF
KJAC 240521Z 2406/2506 20008KT P6SM BKN090
     FM241900 20014G20KT P6SM SCT250
     FM250000 23008KT P6SM SKC
     FM250300 VRB05KT P6SM SKC
      AMD LTD TO CLD VIS AND WIND=



000
FTUS45 KRIW 240500
TAFLND
TAF
KLND 240521Z 2406/2506 VRB05KT P6SM FEW120 BKN250 WS020/25035KT
     FM241900 24010KT P6SM SCT250
     FM250500 VRB05KT P6SM SKC=



000
FTUS45 KRIW 240500
TAFCOD
TAF
KCOD 240521Z 2406/2506 18007KT P6SM BKN100 WS020/26040KT
     FM241000 26015G25KT P6SM SCT120 BKN250
     FM241500 VRB05KT P6SM SCT120 BKN250
     FM242000 25014G20KT P6SM SCT250
     FM250200 20010KT P6SM SKC
      AMD LTD TO CLD VIS AND WIND=



000
FTUS45 KRIW 240500
TAFRKS
TAF
KRKS 240521Z 2406/2506 15006KT P6SM FEW120 BKN250
     FM241900 25012G22KT P6SM SKC
     FM250100 20007KT P6SM SKC=



000
FTUS45 KRIW 240500
TAFRIW
TAF
KRIW 240521Z 2406/2506 VRB05KT P6SM FEW120 BKN250
     FM242000 25010G20KT P6SM SCT250
     FM250200 29008KT P6SM SKC=



000
FTUS45 KRIW 240500
TAFBPI
TAF
KBPI 240521Z 2406/2506 VRB05KT P6SM FEW100 BKN250
     FM241800 25009KT P6SM SKC
     FM250100 VRB05KT P6SM SKC=



000
FTUS45 KRIW 240300 AAA
TAFCOD
TAF AMD
KCOD 240300Z 2403/2424 20010KT P6SM SCT110 BKN250 WS020/26040KT
     FM241000 26015G25KT P6SM SCT120 BKN250
     FM241800 25010KT P6SM SCT120 SCT250
      AMD LTD TO CLD VIS AND WIND=



000
FTUS45 KRIW 240300 AAA
TAFCOD
TAF AMD
KCOD 240300Z 2403/2424 20010KT P6SM SCT110 BKN250 WS020/26040KT
     FM241000 26015G25KT P6SM SCT120 BKN250
     FM241800 25010KT P6SM SCT120 SCT250
      AMD LTD TO CLD VIS AND WIND=



000
FTUS45 KRIW 232300
TAFCOD
TAF
KCOD 232324Z 2400/2424 25010KT P6SM SCT110 BKN250
     FM240200 26012G22KT P6SM SCT110 BKN250 WS020/26035KT
     FM241800 25010KT P6SM SCT120 SCT250
      AMD LTD TO CLD VIS AND WIND=



000
FTUS45 KRIW 232300
TAFLND
TAF
KLND 232324Z 2400/2424 VRB05KT P6SM FEW120 BKN250
      TEMPO 2404/2408 24014G22KT
     FM240800 24012KT P6SM FEW120 BKN250 WS020/25035KT
     FM241900 24007KT P6SM SCT250=



000
FTUS45 KRIW 232300
TAFRKS
TAF
KRKS 232324Z 2400/2424 22008KT P6SM FEW120 BKN250
     FM241900 25012G22KT P6SM SCT090
     FM242300 24008KT P6SM SCT090=



000
FTUS45 KRIW 232300
TAFCPR
TAF
KCPR 232324Z 2400/2424 23014G20KT P6SM FEW120 BKN250
     FM241800 23024G34KT P6SM SCT120 SCT250
     FM242100 23016G26KT P6SM SCT250
     FM242300 23010KT P6SM SCT250=



000
FTUS45 KRIW 232300
TAFWRL
TAF
KWRL 232324Z 2400/2424 VRB04KT P6SM SCT120 BKN250
     FM240200 13010KT P6SM SCT120 BKN250=



000
FTUS45 KRIW 232300
TAFBPI
TAF
KBPI 232324Z 2400/2424 26014KT P6SM SCT100 BKN200
     FM240100 34006KT P6SM SCT100 BKN200
     FM241200 VRB04KT P6SM SCT100 BKN200
     FM241800 25009KT P6SM BKN200=



000
FTUS45 KRIW 232300
TAFJAC
TAF
KJAC 232324Z 2400/2424 18010G20KT P6SM SCT060 BKN100
     FM240300 20008KT P6SM SCT070 BKN120
     FM241900 20010G20KT P6SM SCT070
      AMD LTD TO CLD VIS AND WIND=



000
FTUS45 KRIW 232300
TAFRIW
TAF
KRIW 232324Z 2400/2424 VRB04KT P6SM BKN250
     FM240200 24011KT P6SM FEW120 BKN250
     FM242000 28010G20KT P6SM SCT080=



000
FTUS45 KRIW 232100 AAA
TAFLND
TAF AMD
KLND 232146Z 2322/2418 VRB05KT P6SM FEW120 BKN250
     FM240100 24010KT P6SM FEW120 BKN250 WS020/25035KT=



000
FTUS45 KRIW 232100 AAA
TAFLND
TAF AMD
KLND 232146Z 2322/2418 VRB05KT P6SM FEW120 BKN250
     FM240100 24010KT P6SM FEW120 BKN250 WS020/25035KT=



000
FTUS45 KRIW 232100 AAA
TAFBPI
TAF AMD
KBPI 232145Z 2322/2418 VRB05KT P6SM SCT100 BKN200
     FM240100 34006KT P6SM SCT100 BKN200
     FM241200 VRB04KT P6SM SCT100 BKN200=



000
FTUS45 KRIW 231900 AAA
TAFCOD
TAF AMD
KCOD 231900Z 2319/2418 26010G20KT P6SM SCT250
     FM232200 25014G24KT P6SM SCT120 BKN250 WS020/26038KT
     FM241500 27010G18KT P6SM BKN250
      AMD LTD TO CLD VIS AND WIND=



000
FTUS45 KRIW 231900 AAA
TAFCOD
TAF AMD
KCOD 231900Z 2319/2418 26010G20KT P6SM SCT250
     FM232200 25014G24KT P6SM SCT120 BKN250 WS020/26038KT
     FM241500 27010G18KT P6SM BKN250
      AMD LTD TO CLD VIS AND WIND=



000
FTUS45 KRIW 231700
TAFRIW
TAF
KRIW 231731Z 2318/2418 VRB05KT P6SM FEW120 BKN250
     FM232100 24011KT P6SM FEW120 BKN250=



000
FTUS45 KRIW 231700
TAFRKS
TAF
KRKS 231731Z 2318/2418 04004KT P6SM SCT250
     FM232000 24015G25KT P6SM FEW120 BKN250
     FM240100 22008KT P6SM FEW120 BKN250=



000
FTUS45 KRIW 231700
TAFCPR
TAF
KCPR 231731Z 2318/2418 23020G30KT P6SM FEW120 BKN250
     FM240000 23015G25KT P6SM FEW120 BKN250=



000
FTUS45 KRIW 231700
TAFLND
TAF
KLND 231731Z 2318/2418 VRB05KT P6SM FEW120 BKN250
     FM232100 24014G20KT P6SM FEW120 BKN250
     FM240100 24010KT P6SM FEW120 BKN250 WS020/25035KT=



000
FTUS45 KRIW 231700
TAFCOD
TAF
KCOD 231731Z 2318/2418 NIL=



000
FTUS45 KRIW 231700
TAFWRL
TAF
KWRL 231731Z 2318/2418 VRB03KT P6SM BKN250=



000
FTUS45 KRIW 231700
TAFJAC
TAF
KJAC 231731Z 2318/2418 18007KT P6SM BKN250
     FM231900 19014G22KT P6SM SCT080 BKN150
     FM240000 20010KT P6SM SCT060 BKN100
      AMD LTD TO CLD VIS AND WIND=



000
FTUS45 KRIW 231700
TAFBPI
TAF
KBPI 231731Z 2318/2418 VRB05KT P6SM SCT100 BKN200
     FM231900 24010G15KT P6SM SCT100 BKN200
     FM240100 34006KT P6SM SCT100 BKN200
     FM241200 VRB04KT P6SM SCT100 BKN200=



000
FTUS45 KRIW 231600 AAA
TAFCOD
TAF AMD
KCOD 231633Z 2317/2412 23012G18KT P6SM SCT250
     FM232200 25014G22KT P6SM SCT120 BKN250
      AMD LTD TO CLD VIS AND WIND=



000
FTUS45 KRIW 231600 AAA
TAFCOD
TAF AMD
KCOD 231633Z 2317/2412 23012G18KT P6SM SCT250
     FM232200 25014G22KT P6SM SCT120 BKN250
      AMD LTD TO CLD VIS AND WIND=



000
FTUS45 KRIW 231100
TAFCPR
TAF
KCPR 231130Z 2312/2412 22012KT P6SM SCT250
     FM231500 23020G30KT P6SM FEW120 BKN250
     FM240000 23015G25KT P6SM FEW120 BKN250=



000
FTUS45 KRIW 231100
TAFRIW
TAF
KRIW 231130Z 2312/2412 23006KT P6SM FEW120 BKN250
     FM231500 VRB05KT P6SM FEW120 BKN250
     FM232100 24011KT P6SM FEW120 BKN250=



000
FTUS45 KRIW 231100
TAFJAC
TAF
KJAC 231130Z 2312/2412 VRB05KT P6SM BKN090
     FM231800 19014G22KT P6SM SCT080 BKN150
     FM240000 20010KT P6SM SCT060 BKN100
      AMD LTD TO CLD VIS AND WIND=



000
FTUS45 KRIW 231100
TAFRKS
TAF
KRKS 231130Z 2312/2412 20006KT P6SM SCT250
     FM231800 24015G25KT P6SM FEW120 BKN250
     FM240100 22008KT P6SM FEW120 BKN250=



000
FTUS45 KRIW 231100
TAFWRL
TAF
KWRL 231130Z 2312/2412 15006KT P6SM SCT250
     FM231800 13010KT P6SM SCT120 BKN250=



000
FTUS45 KRIW 231100
TAFLND
TAF
KLND 231130Z 2312/2412 VRB05KT P6SM FEW120 BKN250
     FM232100 24014G20KT P6SM FEW120 BKN250
     FM240100 24010KT P6SM FEW120 BKN250 WS020/25035KT=



000
FTUS45 KRIW 231100
TAFCOD
TAF
KCOD 231130Z 2312/2412 19012G18KT P6SM SCT250
     FM231400 18007KT P6SM SCT120 BKN250 WS020/26030KT
     FM232200 25014G22KT P6SM SCT120 BKN250
      AMD LTD TO CLD VIS AND WIND=



000
FTUS45 KRIW 231100
TAFBPI
TAF
KBPI 231130Z 2312/2412 VRB06KT P6SM SCT100 BKN250
     FM231800 24010G15KT P6SM SCT100 BKN200
     FM240100 34006KT P6SM SCT100 BKN200=



    US Dept of Commerce
    National Oceanic and Atmospheric Administration
    National Weather Service
    1325 East West Highway
    Silver Spring, MD 20910
    Page Author: NWS Internet Services Team
Disclaimer
Information Quality
Credits
Glossary
Privacy Policy
Freedom of Information Act (FOIA)
About Us
Career Opportunities